Date,TemperatureHighF,TemperatureAvgF,TemperatureLowF,DewpointHighF,DewpointAvgF,DewpointLowF,HumidityHigh,HumidityAvg,HumidityLow,PressureMaxIn,PressureMinIn,WindSpeedMaxMPH,WindSpeedAvgMPH,GustSpeedMaxMPH,PrecipitationSumIn
2013-1-1,22.1,15.4,7.0,11.9,3.5,-3.4,72,59,45,29.96,29.81,7,0,7,0.00
2013-1-2,67.5,18.0,3.2,47.6,7.0,-6.1,86,62,24,29.92,29.80,5,0,5,0.26
2013-1-3,31.3,24.6,12.7,24.1,16.5,3.9,82,71,55,30.05,29.83,0,0,0,0.00
2013-1-4,33.4,21.6,8.4,22.6,12.8,-0.3,75,68,63,30.03,29.94,0,0,0,0.00
2013-1-5,37.8,29.1,18.0,33.2,23.5,11.4,87,79,68,29.95,29.69,0,0,0,0.00
2013-1-6,36.0,25.0,17.1,30.5,16.7,9.9,81,70,61,30.04,29.68,0,0,0,0.01
2013-1-7,40.3,28.0,16.7,28.2,19.6,9.5,79,71,57,30.03,29.81,0,0,0,0.00
2013-1-8,45.9,34.5,25.2,32.3,25.7,18.7,79,70,54,29.85,29.74,0,0,0,0.00
2013-1-9,49.1,40.6,32.9,33.6,28.8,23.6,77,63,46,30.20,29.77,0,0,0,0.00
2013-1-10,49.5,37.1,28.9,48.6,30.2,20.6,97,77,53,30.17,29.50,0,0,0,0.59
2013-1-11,57.2,50.9,45.5,51.1,47.6,44.7,99,89,75,29.51,29.38,14,0,14,0.28
2013-1-12,52.5,39.0,23.9,46.5,31.8,18.4,83,75,64,29.71,29.43,0,0,0,0.00
2013-1-13,23.9,18.1,12.9,18.4,8.5,3.3,79,66,58,29.99,29.63,0,0,0,0.00
2013-1-14,30.0,17.0,10.8,12.3,5.6,2.1,69,61,42,30.16,29.99,0,0,0,0.00
2013-1-15,32.4,20.5,10.9,13.5,7.9,1.9,68,58,42,30.12,29.83,0,0,0,0.00
2013-1-16,38.3,29.2,15.3,24.8,16.6,4.1,66,59,46,29.83,29.60,0,0,0,0.01
2013-1-17,34.0,29.2,21.9,26.6,16.8,10.1,82,60,40,30.14,29.78,36,0,36,0.00
2013-1-18,47.1,34.4,20.7,29.9,22.0,11.6,72,61,50,30.49,29.69,0,0,0,0.00
2013-1-19,52.7,43.5,28.9,36.3,30.0,12.2,68,59,50,29.81,29.52,0,0,0,0.01
2013-1-20,28.9,18.2,14.5,12.2,3.7,0.4,64,53,43,30.03,29.81,0,0,0,0.00
2013-1-21,14.7,8.4,3.4,3.1,-8.5,-14.7,60,46,33,30.05,29.93,0,0,0,0.00
2013-1-22,15.4,7.1,0.3,-7.7,-11.5,-17.2,54,42,30,30.12,30.02,0,0,0,0.00
2013-1-23,34.7,25.6,13.6,14.0,7.2,-1.8,53,45,36,30.07,29.80,0,0,0,0.00
2013-1-24,22.5,15.8,6.3,4.0,-3.3,-11.4,60,42,30,30.31,29.97,0,0,0,0.00
2013-1-25,38.5,27.2,18.9,17.1,9.7,-0.2,59,47,36,29.97,29.71,0,0,0,0.00
2013-1-26,34.0,22.0,9.5,10.7,4.2,-2.9,62,46,31,30.09,29.93,0,0,0,0.00
2013-1-27,44.2,32.0,26.6,42.5,23.8,10.6,95,73,49,30.02,29.58,0,0,0,0.09
2013-1-28,55.6,50.0,44.1,54.3,48.7,42.7,96,95,93,29.64,29.47,10,0,10,0.01
2013-1-29,66.2,56.3,41.7,60.0,53.7,40.2,96,91,79,30.14,29.13,0,0,0,1.00
2013-1-30,41.5,30.6,17.1,40.2,26.2,6.7,96,84,62,29.51,28.99,36,9,36,0.25
2013-1-31,21.9,13.1,4.6,13.3,1.4,-9.6,70,59,46,29.98,29.51,39,20,39,0.00
2013-2-1,18.1,10.0,0.5,1.4,-5.1,-13.6,63,49,44,30.11,29.90,25,13,25,0.00
2013-2-2,18.1,15.3,3.4,8.9,1.1,-10.7,70,53,44,30.11,29.73,18,8,18,0.00
2013-2-3,28.6,23.1,16.9,18.0,11.7,8.3,80,62,45,29.81,29.66,29,11,29,0.00
2013-2-4,25.7,24.5,17.6,15.6,14.1,8.9,73,64,61,29.68,29.53,16,12,16,0.00
2013-2-5,41.4,30.1,16.2,29.6,21.0,8.2,76,69,59,29.80,29.53,24,9,24,0.00
2013-2-6,45.9,35.2,23.4,29.7,25.4,17.8,84,68,51,29.90,29.73,19,7,19,0.00
2013-2-7,37.6,35.5,34.0,34.4,30.4,27.1,88,82,72,29.76,29.55,19,7,19,0.57
2013-2-8,34.0,28.4,26.2,29.1,20.5,17.3,83,72,66,30.07,29.73,27,9,27,0.01
2013-2-9,36.0,31.1,26.4,27.3,22.6,18.2,75,70,64,30.06,29.71,21,10,21,0.00
2013-2-10,49.3,41.7,34.3,44.7,35.9,27.3,87,80,58,29.73,29.18,46,17,46,0.41
2013-2-11,40.3,33.7,27.1,29.2,21.4,17.3,69,60,53,29.82,29.31,42,20,42,0.01
2013-2-12,41.0,32.0,26.8,25.3,21.1,17.3,74,64,51,29.84,29.62,14,6,14,0.00
2013-2-13,47.5,36.3,24.1,31.6,25.9,17.5,76,66,53,29.62,29.46,18,8,18,0.00
2013-2-14,40.1,36.6,32.7,29.5,27.1,24.4,75,68,61,29.73,29.42,24,12,24,0.00
2013-2-15,34.2,27.4,20.5,26.0,12.4,7.3,75,54,35,29.93,29.73,21,13,21,0.00
2013-2-16,29.7,20.4,12.9,11.9,5.4,-1.0,63,52,40,29.92,29.83,22,9,22,0.00
2013-2-17,38.1,25.5,12.0,19.2,10.7,1.4,65,53,41,29.88,29.57,21,10,21,0.00
2013-2-18,54.7,38.5,23.4,43.6,28.6,13.2,86,68,53,29.58,29.16,42,18,42,0.38
2013-2-19,23.7,18.1,12.6,13.7,5.7,0.3,69,58,49,29.96,29.49,39,23,39,0.01
2013-2-20,22.1,14.3,4.6,8.0,1.2,-7.9,64,55,45,30.10,29.95,18,8,18,0.00
2013-2-21,28.2,22.2,12.2,20.9,13.6,4.1,79,69,62,30.03,29.56,27,13,27,0.00
2013-2-22,31.8,28.5,25.5,27.8,21.4,15.4,85,75,63,29.68,29.46,25,12,25,0.00
2013-2-23,29.7,24.1,18.9,16.7,12.9,8.1,67,62,53,29.69,29.65,16,8,16,0.00
2013-2-24,39.9,27.6,15.4,24.2,15.7,5.9,76,61,45,29.81,29.69,9,4,9,0.01
2013-2-25,43.7,34.3,24.4,31.2,24.3,16.1,74,66,56,29.81,29.53,22,9,22,0.00
2013-2-26,35.4,32.7,31.1,28.7,26.9,23.4,86,79,63,29.53,29.17,33,17,33,0.11
2013-2-27,32.7,30.9,29.1,28.1,27.0,25.5,86,85,82,29.51,29.28,17,10,17,0.07
2013-2-28,37.6,32.9,30.9,28.3,27.1,25.3,85,79,64,29.77,29.51,14,7,14,0.00
2013-3-1,30.9,26.6,23.7,27.0,18.4,14.4,85,71,64,29.90,29.75,19,12,19,0.00
2013-3-2,29.1,23.2,13.1,14.4,9.3,2.5,66,55,42,29.92,29.86,17,7,17,0.00
2013-3-3,42.1,24.4,8.6,15.2,8.3,-0.8,71,52,28,29.88,29.74,10,2,10,0.00
2013-3-4,36.9,31.1,24.8,24.7,20.3,11.0,77,64,54,29.76,29.56,27,14,27,0.00
2013-3-5,33.6,30.8,26.6,28.1,24.6,18.5,84,77,69,29.77,29.53,30,13,30,0.06
2013-3-6,30.9,26.5,22.3,19.7,16.6,14.0,72,66,60,30.04,29.77,25,11,25,0.00
2013-3-7,40.3,29.4,23.9,22.8,18.6,15.4,73,64,49,30.11,30.02,11,5,11,0.00
2013-3-8,44.1,34.2,22.8,31.9,24.8,16.0,76,68,58,30.11,29.92,16,8,16,0.00
2013-3-9,49.3,41.3,36.0,39.1,32.9,26.6,85,72,65,29.92,29.47,20,12,20,0.32
2013-3-10,51.6,47.1,42.1,47.9,43.0,37.1,89,86,73,29.51,29.28,17,7,17,0.60
2013-3-11,45.0,34.9,29.5,41.6,29.8,21.9,90,81,73,29.61,29.32,27,16,27,0.04
2013-3-12,38.7,30.5,25.2,28.0,20.8,13.7,81,67,57,29.84,29.61,32,15,32,0.00
2013-3-13,36.3,27.9,21.9,17.8,14.1,10.7,67,56,37,30.06,29.83,29,13,29,0.00
2013-3-14,46.0,33.3,23.9,30.2,22.5,13.1,76,65,49,30.05,29.76,16,6,16,0.00
2013-3-15,52.3,41.2,29.3,39.0,31.6,23.9,83,69,52,29.76,29.38,12,6,12,0.00
2013-3-16,42.6,35.8,30.9,37.8,28.4,22.5,86,75,60,29.81,29.35,21,10,21,0.00
2013-3-17,38.1,32.6,28.6,24.6,21.8,19.0,75,64,53,29.85,29.59,21,12,21,0.00
2013-3-18,40.1,32.2,25.2,32.3,23.9,10.3,82,72,52,29.64,29.39,34,14,34,0.02
2013-3-19,40.8,28.6,19.4,14.4,9.7,4.6,57,45,30,29.86,29.61,31,16,31,0.00
2013-3-20,29.1,22.9,15.6,15.5,3.9,-1.1,60,44,30,29.90,29.79,34,19,34,0.00
2013-3-21,38.7,24.7,11.3,9.9,3.5,-0.5,62,41,26,29.81,29.69,16,4,16,0.00
2013-3-22,23.5,23.3,23.0,8.4,8.0,7.5,52,51,50,29.73,29.73,3,2,3,0.00
2013-3-23,48.9,38.4,28.0,23.3,19.8,16.7,65,48,32,29.79,29.65,15,8,15,0.00
2013-3-24,33.3,30.0,28.4,27.8,25.5,19.1,86,83,56,29.67,27.86,27,15,27,0.00
2013-3-25,36.9,31.2,26.4,25.0,22.0,20.4,85,69,53,29.83,29.48,22,10,22,0.06
2013-3-26,37.2,31.7,27.9,21.8,20.7,17.8,70,63,50,29.96,29.83,16,8,16,0.00
2013-3-28,40.3,39.6,38.5,27.5,26.4,25.9,64,59,57,30.00,29.98,4,3,4,0.00
2013-3-29,61.0,46.9,33.6,31.3,27.8,23.9,69,49,26,30.00,29.90,9,4,9,0.00
2013-3-30,56.8,47.6,35.4,40.2,35.0,25.9,77,62,48,29.91,29.59,22,10,22,0.00
2013-3-31,62.6,50.8,37.8,42.9,34.6,22.3,83,56,29,29.67,29.51,31,15,31,0.00
2013-4-1,43.5,35.7,27.7,25.2,16.4,11.2,66,46,27,29.94,29.67,27,11,27,0.00
2013-4-2,47.1,34.9,21.6,19.5,13.5,9.3,65,44,23,30.03,29.94,24,7,24,0.00
2013-4-3,51.8,38.1,23.2,43.8,13.6,9.6,97,39,23,30.13,29.98,17,6,17,0.00
2013-4-4,62.2,47.6,33.4,27.8,19.4,14.7,51,34,22,29.99,29.71,15,5,15,0.00
2013-4-5,60.8,48.3,34.5,33.5,27.6,21.3,75,48,23,29.90,29.74,21,7,21,0.00
2013-4-6,72.7,57.2,43.2,49.7,35.1,22.9,67,45,23,29.76,29.35,46,17,46,0.00
2013-4-7,72.0,57.0,40.1,44.3,41.8,37.4,92,60,32,29.66,29.44,22,6,22,0.00
2013-4-8,73.6,63.4,55.0,58.2,54.6,42.1,97,74,55,29.59,29.29,33,10,33,0.87
2013-4-9,78.6,68.1,58.8,60.9,58.0,53.4,87,71,51,29.59,29.50,30,10,30,0.00
2013-4-10,59.0,45.3,41.2,53.5,43.9,39.9,99,95,80,29.63,29.37,30,13,30,1.48
2013-4-11,50.7,44.6,37.0,46.5,41.0,28.9,99,87,72,29.38,29.32,30,13,30,0.05
2013-4-12,44.4,39.2,36.5,36.1,32.7,29.0,89,77,65,29.63,29.33,31,14,31,0.01
2013-4-13,53.1,43.4,34.7,36.8,30.8,21.8,82,62,44,29.71,29.61,27,12,27,0.00
2013-4-14,76.5,60.3,44.6,53.7,44.8,35.7,82,59,36,30.33,29.31,42,16,42,0.00
2013-4-15,64.6,54.5,44.2,55.6,49.5,39.5,98,84,62,29.72,29.37,36,9,36,0.33
2013-4-16,53.4,46.6,40.5,42.0,38.5,33.8,90,74,56,29.90,29.66,18,8,18,0.14
2013-4-17,58.6,48.6,44.1,57.2,43.9,34.1,97,84,65,29.92,29.39,27,14,40,2.35
2013-4-18,62.2,52.7,38.1,59.6,49.9,30.9,97,90,76,29.42,29.15,44,17,44,1.83
2013-4-19,41.7,37.5,34.5,32.6,29.1,25.9,79,71,64,29.73,29.32,38,19,38,0.00
2013-4-20,51.6,40.5,30.6,31.0,26.7,22.8,78,59,33,30.06,29.73,16,6,18,0.00
2013-4-21,58.8,47.1,35.4,41.5,34.2,28.0,77,61,47,30.14,29.96,26,11,26,0.00
2013-4-22,69.6,56.4,41.2,48.3,39.0,34.4,78,55,30,29.98,29.71,20,9,20,0.00
2013-4-23,55.4,44.7,37.6,49.2,42.1,35.7,95,91,78,29.75,29.62,23,9,23,0.54
2013-4-24,51.8,42.1,35.6,36.0,32.5,28.5,90,70,45,29.87,29.68,21,10,21,0.04
2013-4-25,58.1,47.7,39.4,34.8,31.3,24.8,78,54,35,30.01,29.82,31,12,31,0.00
2013-4-26,65.3,52.8,41.5,47.2,40.7,31.8,85,64,50,30.01,29.94,24,11,24,0.00
2013-4-27,62.6,53.5,43.7,50.3,46.3,41.8,95,78,50,29.99,29.68,18,5,18,0.01
2013-4-28,71.4,58.3,51.6,53.1,50.8,48.2,95,78,51,29.68,29.55,13,6,13,0.00
2013-4-29,79.0,63.5,46.6,59.0,52.7,44.7,96,70,47,29.61,29.43,29,11,29,0.00
2013-4-30,87.1,73.2,59.9,61.2,57.0,49.6,91,61,29,29.65,29.45,26,12,26,0.00
2013-5-1,84.9,73.8,58.5,57.8,53.7,47.3,85,52,28,29.83,29.65,22,8,22,0.00
2013-5-2,70.5,59.2,44.6,56.8,49.5,41.0,93,71,51,29.88,29.79,23,10,23,0.07
2013-5-3,60.3,49.0,43.5,59.6,48.3,42.6,99,97,91,29.82,29.51,26,11,26,1.23
2013-5-4,63.9,58.3,53.4,57.5,54.8,51.6,95,88,71,29.74,29.54,24,8,24,0.38
2013-5-5,73.4,61.1,52.2,58.0,52.4,45.1,97,76,39,29.73,29.62,22,8,22,0.01
2013-5-6,76.3,64.9,53.8,53.8,48.9,39.6,87,60,28,29.74,29.67,23,8,23,0.00
2013-5-7,84.0,68.6,50.2,47.9,41.4,32.7,76,40,18,29.76,29.69,13,3,13,0.00
2013-5-8,84.6,71.9,56.7,56.6,47.6,38.4,72,44,22,29.75,29.68,11,3,11,0.00
2013-5-9,71.2,63.9,60.8,62.1,59.2,54.9,94,85,63,30.29,29.52,26,7,26,0.25
2013-5-10,62.2,54.5,50.0,60.2,50.7,45.7,96,87,80,29.69,29.52,21,10,21,0.01
2013-5-11,61.2,52.8,41.9,50.9,38.9,26.4,96,64,32,29.83,29.62,31,12,31,0.00
2013-5-12,58.8,48.9,37.9,32.0,29.0,23.1,75,49,29,29.89,29.81,24,10,24,0.00
2013-5-13,71.1,57.7,41.0,43.4,34.8,27.2,69,45,23,29.89,29.70,19,6,19,0.00
2013-5-14,91.8,73.4,53.1,63.9,54.1,42.3,73,53,35,29.70,29.42,29,12,29,0.00
2013-5-15,77.5,76.9,76.5,57.0,56.1,55.0,51,49,46,29.47,29.46,27,22,27,0.00
2013-5-16,85.8,73.4,60.8,63.2,57.7,49.2,87,60,35,29.66,29.55,15,5,15,0.38
2013-5-17,83.3,71.3,60.8,65.6,59.5,52.3,90,69,38,29.71,29.63,21,6,21,0.01
2013-5-18,83.1,73.0,64.0,65.9,62.8,59.9,96,72,47,29.73,29.62,19,5,19,0.00
2013-5-19,90.9,77.5,64.2,70.1,65.9,61.1,93,69,46,29.64,29.43,33,10,33,0.00
2013-5-20,83.3,72.7,61.7,67.1,61.7,57.4,96,70,43,29.56,29.39,74,15,74,1.31
2013-5-21,81.9,71.6,62.1,64.6,61.0,56.9,94,71,47,29.44,29.38,26,12,26,0.00
2013-5-22,73.2,65.3,59.4,60.7,56.3,52.7,94,74,53,29.53,29.36,30,9,30,0.05
2013-5-23,65.1,58.7,51.3,57.2,52.3,47.2,98,80,57,29.97,29.52,23,10,23,0.02
2013-5-24,71.2,56.1,41.2,47.4,41.0,36.4,95,61,30,30.13,29.96,15,5,15,0.00
2013-5-25,55.2,51.5,47.5,50.1,44.1,35.7,94,77,54,30.11,29.92,17,8,17,0.43
2013-5-26,65.7,56.9,50.7,59.2,53.5,48.1,96,88,75,29.96,29.75,27,11,27,0.91
2013-5-27,72.1,64.2,58.1,66.3,61.8,56.4,99,92,75,29.75,29.50,24,8,24,0.58
2013-5-28,78.4,70.6,64.8,70.2,65.6,60.9,93,84,73,29.63,29.43,33,13,33,0.40
2013-5-29,85.3,74.1,62.2,70.3,64.8,58.5,93,74,54,29.69,29.53,31,12,31,0.48
2013-5-30,84.6,72.9,62.8,70.1,65.3,59.6,96,78,58,29.60,29.46,36,14,36,0.77
2013-5-31,76.1,68.3,63.0,70.4,64.6,60.2,97,88,74,29.59,29.41,27,9,27,0.22
2013-6-1,76.5,67.7,62.2,68.6,61.8,56.6,93,82,54,29.55,29.40,29,12,29,0.18
2013-6-2,62.1,60.1,55.4,57.8,53.4,49.2,89,79,69,29.76,29.52,21,8,21,0.00
2013-6-3,70.5,60.9,48.9,53.5,47.9,41.6,93,64,44,29.84,29.73,14,4,14,0.00
2013-6-4,76.5,64.8,51.8,56.2,51.0,46.6,85,63,43,29.84,29.73,18,6,18,0.00
2013-6-5,80.1,69.1,57.0,61.2,56.5,53.2,88,66,43,29.77,29.59,11,4,11,0.93
2013-6-6,74.1,64.2,57.9,61.5,57.2,53.6,91,79,56,29.62,29.57,15,6,15,3.09
2013-6-7,75.9,64.7,54.1,56.0,52.9,50.2,88,67,46,29.65,29.60,18,5,18,0.00
2013-6-8,80.6,68.6,53.4,57.1,51.8,45.4,85,57,37,29.69,29.63,15,4,15,0.00
2013-6-9,81.9,68.4,61.7,65.6,59.8,55.5,96,75,50,29.67,29.50,29,7,29,0.06
2013-6-10,79.7,69.8,59.7,67.0,61.2,58.9,99,76,52,29.61,29.46,14,2,14,0.01
2013-6-11,89.8,77.6,62.1,72.7,66.0,58.3,90,69,53,29.66,29.51,13,2,13,0.00
2013-6-12,92.3,87.3,69.1,72.4,71.7,63.0,83,60,49,30.13,29.54,34,4,34,0.00
2013-6-13,83.8,74.8,66.2,68.2,58.8,51.5,96,61,36,30.38,29.98,25,10,25,0.01
2013-6-14,82.6,71.4,58.5,61.6,57.0,53.5,85,62,42,30.47,30.26,14,4,14,0.00
2013-6-15,79.2,71.4,66.9,70.6,65.4,58.1,96,82,66,30.38,30.17,42,9,42,0.34
2013-6-16,84.2,74.0,65.7,70.6,67.2,63.4,96,80,62,30.32,30.19,14,6,14,0.00
2013-6-17,88.9,78.4,65.8,69.7,64.7,51.2,96,66,30,30.32,30.11,11,4,11,0.00
2013-6-18,72.9,70.6,65.3,67.3,64.5,61.7,98,81,69,30.28,30.22,11,7,11,0.00
2013-6-19,71.4,71.4,71.4,64.2,64.2,64.2,78,78,78,30.28,30.28,8,8,11,0.00
2013-6-20,71.4,71.4,71.4,64.2,64.2,64.2,78,78,78,30.28,30.28,8,8,11,0.00
2013-6-21,83.3,73.4,60.8,71.3,62.6,52.2,87,71,37,30.04,29.67,19,6,19,0.01
2013-6-22,87.3,77.5,68.7,75.3,70.9,65.5,93,81,64,30.05,29.85,27,8,27,0.00
2013-6-23,89.6,74.3,67.8,73.1,67.9,65.1,94,82,56,30.00,29.76,35,8,35,0.04
2013-6-24,87.8,73.0,67.3,74.1,67.9,63.9,96,85,62,30.06,29.75,42,7,42,0.17
2013-6-25,86.4,77.0,69.4,74.7,71.2,63.6,98,83,58,29.88,29.69,44,10,44,0.11
2013-6-26,88.2,76.4,66.6,75.9,71.3,64.8,98,85,63,29.80,29.58,27,6,27,0.40
2013-6-27,89.8,79.7,71.4,74.8,70.5,66.2,98,75,47,29.81,29.62,19,8,19,0.00
2013-6-28,84.6,76.3,67.5,66.2,62.3,57.5,91,64,43,29.75,29.53,25,10,25,0.00
2013-6-29,75.6,68.4,63.5,68.1,62.8,59.2,95,83,70,29.72,29.49,26,8,26,0.14
2013-6-30,79.7,68.9,60.8,63.8,60.1,53.7,94,75,50,29.91,29.69,24,9,24,0.00
2013-7-1,79.2,68.2,57.2,56.2,53.2,48.6,85,61,38,30.02,29.89,24,10,24,0.00
2013-7-2,77.2,67.1,56.1,58.4,54.4,44.4,88,66,36,30.00,29.81,21,7,21,0.00
2013-7-3,82.9,69.0,56.8,58.2,55.6,48.9,95,65,37,30.03,29.80,11,3,11,0.00
2013-7-4,87.3,75.2,62.1,66.3,61.2,55.8,92,64,37,30.05,29.81,17,5,17,0.00
2013-7-5,87.3,76.2,63.5,68.1,62.8,58.1,97,66,39,30.05,29.85,16,5,16,0.00
2013-7-6,88.9,76.1,63.9,69.5,66.0,62.1,98,73,43,30.05,29.87,14,5,14,0.00
2013-7-7,90.9,79.8,68.2,72.9,68.7,64.1,94,71,42,30.01,29.75,18,8,18,0.00
2013-7-8,86.4,79.1,72.3,75.9,72.4,67.9,95,80,65,30.04,29.77,24,9,24,0.33
2013-7-9,90.0,82.0,76.1,77.9,75.6,72.4,96,82,61,30.01,29.62,18,7,18,0.02
2013-7-10,78.8,78.5,78.3,75.5,75.4,75.1,91,90,89,29.79,29.77,9,7,9,0.00
2013-7-11,81.9,73.4,62.4,65.4,60.4,55.7,94,66,42,30.08,29.95,11,4,11,0.00
2013-7-12,85.8,74.8,60.6,64.3,56.4,47.9,74,55,33,30.13,29.96,9,3,9,0.00
2013-7-13,86.4,75.4,61.7,65.0,60.4,55.4,87,62,42,30.11,29.92,15,5,15,0.00
2013-7-14,90.9,79.2,64.6,71.3,66.5,63.1,97,68,44,30.14,29.89,10,5,10,0.00
2013-7-15,93.4,81.6,70.5,76.6,72.5,69.3,97,76,49,30.26,29.87,11,4,11,0.00
2013-7-16,92.8,83.3,73.0,75.3,73.1,70.3,99,74,49,30.22,29.93,11,4,11,0.00
2013-7-17,97.2,86.8,73.0,76.1,73.4,70.2,97,67,44,30.24,29.75,10,3,10,0.00
2013-7-18,95.2,85.8,74.8,76.1,73.9,70.4,93,70,47,30.05,29.61,15,6,15,0.00
2013-7-19,93.6,84.5,78.3,74.3,71.8,68.9,86,67,47,29.64,29.47,12,6,12,0.00
2013-7-20,84.6,77.7,71.6,72.6,69.8,65.0,92,77,55,29.79,29.48,13,5,13,0.00
2013-7-21,81.5,74.0,65.8,73.9,69.1,63.8,97,85,72,29.87,29.57,11,3,11,0.04
2013-7-22,89.6,78.0,65.3,74.6,69.3,65.0,99,77,53,29.73,29.60,27,4,27,0.09
2013-7-23,82.6,72.6,64.8,71.1,65.4,60.3,99,79,57,29.84,29.63,16,6,16,0.01
2013-7-24,77.9,67.6,56.7,61.0,56.7,52.7,99,71,45,29.93,29.73,17,5,17,0.00
2013-7-25,84.0,71.1,55.8,62.5,57.5,51.6,93,65,42,30.08,29.67,11,3,11,0.00
2013-7-26,76.8,66.9,60.1,71.1,63.5,57.8,99,89,76,29.94,29.61,19,6,19,0.78
2013-7-27,69.4,61.9,55.2,58.4,53.4,47.6,99,76,49,29.97,29.65,21,8,21,0.01
2013-7-28,73.8,63.0,51.1,55.9,52.3,48.1,90,69,51,30.11,29.69,20,8,20,0.00
2013-7-29,82.6,68.7,53.8,60.7,55.3,49.2,92,65,37,30.10,29.69,11,3,11,0.00
2013-7-30,69.8,66.3,62.8,68.6,64.3,57.8,99,94,76,30.02,29.75,13,4,13,0.00
2013-7-31,79.2,71.1,66.9,69.2,67.6,65.5,99,89,67,29.89,29.50,11,4,11,0.15
2013-8-1,84.6,73.8,62.6,66.1,63.3,59.1,99,73,47,29.79,29.47,15,4,15,0.00
2013-8-2,86.0,75.3,65.8,72.3,67.9,63.5,98,79,54,29.65,29.34,18,8,18,0.00
2013-8-3,82.2,73.0,63.7,69.8,62.2,56.2,98,71,44,29.69,29.46,14,4,14,0.00
2013-8-4,84.6,71.8,59.4,64.2,58.1,51.0,93,65,36,29.93,29.59,11,3,11,0.00
2013-8-5,79.7,69.1,59.7,69.0,63.0,56.7,98,81,66,30.01,29.49,17,5,17,0.00
2013-8-6,89.4,76.0,65.8,74.8,70.9,65.6,99,86,59,29.80,29.66,14,6,14,0.00
2013-8-7,88.5,78.2,68.5,76.9,72.1,66.0,99,83,55,29.78,29.65,15,6,15,0.00
2013-8-8,81.9,73.8,66.2,68.4,66.7,65.1,97,80,61,29.88,29.76,12,4,12,0.00
2013-8-9,85.3,74.4,61.2,69.0,63.5,56.4,96,71,42,29.93,29.81,7,2,7,0.00
2013-8-10,81.5,72.4,61.0,67.9,60.5,55.1,94,68,44,30.02,29.90,13,4,13,0.00
2013-8-11,86.9,74.2,58.3,69.3,61.9,55.9,93,68,44,30.05,29.85,14,3,14,0.00
2013-8-12,83.5,73.5,64.6,73.6,67.3,63.1,95,82,63,29.89,29.74,15,5,15,0.26
2013-8-13,74.8,66.2,55.0,63.5,56.9,49.2,95,74,46,29.98,29.78,15,6,15,0.05
2013-8-14,55.4,54.9,54.3,51.0,50.6,50.2,88,85,84,30.00,29.98,0,0,0,0.00
2013-8-15,77.9,65.8,55.0,61.4,55.2,50.8,96,71,44,30.19,29.85,6,2,6,0.00
2013-8-16,80.6,68.8,56.5,60.5,56.6,52.2,95,68,38,30.05,29.72,9,3,9,0.00
2013-8-17,80.6,69.2,56.3,61.6,57.1,53.1,94,67,43,30.13,29.92,14,4,14,0.00
2013-8-18,86.4,71.2,54.9,64.3,59.0,54.0,99,69,40,30.08,29.90,11,2,11,0.00
2013-8-19,88.0,74.7,59.9,68.1,63.4,57.0,93,70,45,30.02,29.83,13,3,13,0.00
2013-8-20,87.6,75.7,63.9,70.0,66.0,63.0,99,74,47,29.98,29.76,16,5,16,0.02
2013-8-21,89.1,77.1,64.9,71.5,67.6,64.7,99,75,49,29.98,29.87,15,6,15,0.00
2013-8-22,86.4,75.3,68.9,72.8,69.2,66.6,95,82,63,29.99,29.84,22,6,22,0.00
2013-8-23,84.9,73.7,62.1,70.8,65.6,61.5,99,78,51,30.02,29.91,14,4,14,0.00
2013-8-24,89.1,75.8,61.7,70.1,65.4,58.0,92,72,49,30.11,29.91,12,4,12,0.06
2013-8-25,74.5,68.0,64.4,67.6,65.5,63.8,98,92,78,30.12,29.95,8,4,8,0.01
2013-8-26,88.5,79.3,75.7,74.9,73.6,72.5,92,83,63,29.93,29.75,8,6,8,0.01
2013-8-27,93.0,81.8,72.0,74.2,70.4,62.8,96,71,46,29.95,29.65,20,8,20,0.00
2013-8-28,95.4,83.8,74.5,79.1,71.0,63.4,94,67,48,29.87,29.66,17,7,17,0.00
2013-8-29,89.1,78.4,70.7,76.2,72.6,69.1,96,83,62,29.96,29.46,11,4,11,0.00
2013-8-30,97.7,83.1,70.7,77.0,72.6,64.3,98,73,42,29.59,29.04,24,6,24,0.00
2013-8-31,95.2,80.0,69.1,77.6,70.6,63.3,97,74,56,29.33,28.98,13,5,13,0.00
2013-9-1,90.3,76.4,64.2,77.3,67.7,61.7,99,77,45,29.36,29.10,17,5,17,0.00
2013-9-2,82.2,70.6,59.4,65.5,60.1,55.9,96,71,43,29.65,29.26,13,5,13,0.00
2013-9-3,83.1,67.1,54.0,62.1,57.2,53.1,99,73,43,29.93,29.62,9,2,10,0.00
2013-9-4,89.1,72.3,54.5,63.9,57.2,53.6,99,63,33,30.22,29.74,9,2,9,0.00
2013-9-5,90.7,76.5,62.6,69.5,62.7,56.4,89,65,40,30.07,29.87,8,3,8,0.00
2013-9-6,88.2,74.1,59.2,67.5,62.0,55.2,90,68,43,30.10,29.79,17,5,17,0.00
2013-9-7,89.1,76.2,62.1,71.6,66.2,61.4,98,73,46,29.91,29.69,17,6,17,0.00
2013-9-8,75.2,72.4,69.6,70.6,69.3,68.3,98,90,83,29.82,29.75,17,5,17,0.00
2013-9-10,94.5,82.4,74.3,69.9,68.9,67.1,85,65,44,29.91,29.80,21,8,21,0.00
2013-9-11,93.4,80.3,72.0,70.1,67.6,64.7,87,67,44,29.97,29.87,16,7,16,0.01
2013-9-12,83.3,73.2,59.5,70.7,59.3,43.8,99,67,28,29.93,29.81,24,8,24,0.01
2013-9-13,72.0,60.5,50.5,52.4,44.5,31.1,98,60,23,30.16,29.89,17,6,17,0.00
2013-9-14,75.0,60.3,45.1,49.8,44.7,37.1,97,61,28,30.24,29.75,14,4,14,0.00
2013-9-15,66.6,59.4,52.0,62.7,55.1,46.6,99,86,69,30.10,29.85,15,6,15,0.01
2013-9-16,71.2,60.7,53.1,56.9,53.1,48.0,99,78,49,30.39,30.01,17,8,17,0.00
2013-9-17,52.9,51.1,49.8,49.1,48.6,47.8,97,91,84,30.23,30.17,8,4,8,0.00
2013-9-18,86.4,73.4,61.0,72.6,65.5,55.9,92,77,56,29.89,29.53,21,9,21,0.00
2013-9-19,90.7,78.6,67.1,71.0,69.2,63.6,99,75,50,29.87,29.44,24,11,24,0.00
2013-9-20,72.5,66.1,56.1,68.3,60.3,49.1,99,83,48,29.78,29.38,18,8,18,0.00
2013-9-21,72.0,60.0,50.0,53.5,50.1,45.7,99,74,41,29.87,29.54,17,7,17,0.00
2013-9-28,80.8,70.3,58.8,69.1,64.2,48.3,99,83,45,29.72,29.40,24,9,24,0.28
2013-9-29,72.9,60.4,48.2,57.4,47.9,39.3,99,68,31,30.25,29.68,14,5,14,0.00
2013-9-30,79.2,63.0,48.2,60.2,51.9,46.4,98,71,37,30.19,29.60,19,5,19,0.00
2013-10-1,80.4,68.7,58.8,67.6,64.3,58.6,99,87,61,30.01,29.58,21,9,21,0.00
2013-10-2,84.4,70.8,62.6,70.1,65.1,61.8,99,84,48,29.94,29.50,14,4,14,0.00
2013-10-3,82.9,71.9,66.2,72.7,68.7,65.9,99,91,62,29.78,29.49,19,8,19,0.00
2013-10-9,77.0,61.4,49.1,49.8,46.7,43.0,93,62,30,30.23,29.77,11,3,11,0.00
2013-10-10,78.1,64.0,50.9,57.9,53.1,46.2,96,70,46,30.08,29.66,17,4,17,0.00
2013-10-11,80.2,66.8,55.4,60.3,56.0,53.9,99,71,42,29.94,29.55,23,7,23,0.00
2013-10-12,73.0,63.0,50.4,61.8,51.4,39.7,98,69,31,29.96,29.74,16,6,16,0.00
2013-10-13,69.1,54.9,43.0,42.6,35.1,24.6,81,52,19,30.48,29.97,11,4,11,0.00
2013-10-14,66.7,53.3,38.8,45.2,39.5,31.4,93,62,27,30.48,29.91,16,6,16,0.00
2013-10-15,72.3,60.3,45.3,64.7,52.6,37.9,99,77,53,30.60,29.67,25,10,25,0.02
2013-10-16,53.1,50.1,43.3,45.5,43.4,40.7,92,78,72,30.44,30.10,21,8,21,0.00
2013-10-17,63.0,51.1,43.7,48.5,42.3,33.1,99,75,34,30.24,29.98,24,8,24,0.06
2013-10-18,54.9,46.7,42.1,43.2,39.9,35.9,99,79,52,30.32,30.13,20,9,20,0.00
2013-10-19,55.9,46.7,36.3,41.6,37.7,32.8,99,74,45,30.24,30.03,27,12,27,0.00
2013-10-20,70.5,53.5,37.6,46.6,41.4,36.9,99,67,34,30.19,29.80,25,9,25,0.00
2013-10-21,56.7,44.9,32.5,48.3,32.5,21.9,90,63,36,30.31,30.02,27,9,27,0.00
2013-10-22,42.6,36.9,32.7,42.2,34.1,23.3,99,90,64,30.34,30.14,18,7,18,0.17
2013-10-23,48.0,38.5,31.5,36.5,31.1,26.3,97,76,49,30.40,30.23,19,9,19,0.01
2013-10-24,44.1,36.3,28.4,36.5,24.9,19.8,96,64,43,30.64,30.38,24,10,24,0.00
2013-10-25,54.7,39.9,25.3,34.0,26.5,19.6,86,61,27,30.78,30.30,22,8,22,0.00
2013-10-26,57.0,45.9,35.8,37.5,30.4,24.9,70,56,32,30.41,30.20,27,11,27,0.00
2013-10-27,58.6,43.1,28.2,33.9,29.3,21.7,86,60,34,30.41,30.19,20,6,20,0.00
2013-10-28,62.4,47.9,33.6,41.9,33.6,26.6,85,60,33,30.60,30.23,16,5,16,0.00
2013-10-29,56.7,47.7,38.5,51.8,43.0,38.2,99,85,55,30.62,30.25,14,7,14,0.00
2013-10-30,64.2,57.2,52.3,63.4,56.7,51.8,99,98,97,30.38,29.87,27,7,27,0.01
2013-10-31,64.0,56.7,44.6,63.2,55.9,43.2,99,97,92,29.97,29.55,27,11,27,0.02
2013-11-1,53.2,46.2,40.8,46.5,43.7,40.4,99,91,69,30.06,29.81,21,9,21,0.01
2013-11-2,52.2,43.4,36.9,41.4,36.9,30.7,99,79,49,30.44,29.93,22,8,22,0.00
2013-11-3,54.9,43.4,30.4,38.0,33.6,27.8,94,70,41,30.58,30.30,18,6,18,0.00
2013-11-4,57.7,50.8,44.4,45.5,40.9,36.0,77,69,55,30.49,30.29,30,13,30,0.00
2013-11-5,55.0,52.7,50.9,53.7,50.7,45.3,99,93,77,30.53,30.10,29,11,29,0.17
2013-11-6,57.4,45.4,33.8,56.9,42.9,28.3,99,91,78,30.55,30.11,27,14,27,0.15
2013-11-7,48.7,37.2,28.4,38.9,30.6,24.8,87,77,60,30.64,30.44,26,8,26,0.00
2013-11-8,49.1,41.3,26.6,36.8,31.2,21.9,92,68,50,30.68,30.15,31,10,31,0.00
2013-11-9,61.3,55.7,45.7,40.7,38.4,36.2,76,54,42,30.30,30.18,28,17,28,0.00
2013-11-10,60.8,60.8,60.8,38.2,38.2,38.2,43,43,43,30.26,30.26,16,16,21,0.00
2013-11-11,60.8,60.8,60.8,38.2,38.2,38.2,43,43,43,30.26,30.26,16,16,21,0.00
2013-11-12,60.8,60.8,60.8,38.2,38.2,38.2,43,43,43,30.26,30.26,16,16,21,0.00
2013-11-13,77.0,61.5,50.9,57.9,48.5,37.5,96,65,30,30.36,30.05,23,5,23,0.00
2013-11-14,78.4,66.0,55.4,60.3,56.3,54.7,99,74,45,30.21,29.93,23,6,23,0.00
2013-11-15,80.2,66.9,59.9,61.8,56.8,47.4,98,73,42,30.20,29.82,19,6,19,0.00
2013-11-16,73.0,56.2,43.7,56.2,47.4,37.7,94,76,31,30.81,29.80,28,11,28,2.01
2013-11-17,68.7,55.9,44.2,64.2,51.1,38.7,98,84,67,30.36,29.52,48,18,48,0.15
2013-11-18,46.8,40.0,30.2,39.0,31.9,24.8,88,73,52,30.74,30.37,29,13,29,0.00
2013-11-19,46.8,35.4,25.5,28.0,25.7,20.7,85,69,45,30.87,30.58,14,6,14,0.00
2013-11-20,41.4,36.9,32.5,38.4,31.6,26.1,96,81,68,30.75,30.43,18,10,18,0.01
2013-11-21,48.6,44.6,41.4,46.2,42.5,38.2,98,93,84,30.73,30.54,14,4,14,0.00
2013-11-22,41.4,34.4,23.7,40.3,30.6,20.2,99,86,70,31.01,30.72,19,9,19,0.00
2013-11-23,24.8,20.9,12.2,20.2,9.2,1.4,86,61,40,31.23,30.86,23,11,23,0.00
2013-11-24,30.4,18.6,8.4,9.8,2.8,-4.6,70,52,24,31.33,30.77,17,6,17,0.00
2013-11-25,34.2,28.6,22.6,24.0,15.8,7.6,75,59,47,30.91,30.46,21,10,25,0.00
2013-11-26,35.2,26.6,16.5,24.5,14.2,0.9,78,60,41,30.74,30.49,29,12,29,0.00
2013-11-27,29.1,19.1,11.3,6.2,2.8,0.4,61,49,31,30.89,30.59,21,8,21,0.00
2013-11-28,38.5,26.3,17.1,19.0,11.8,5.1,71,54,41,30.95,30.62,17,8,17,0.00
2013-11-29,38.3,27.4,15.6,20.8,15.1,8.1,77,60,42,31.16,30.75,14,5,14,0.00
2013-11-30,52.0,41.9,26.1,34.2,28.7,20.3,84,61,44,30.93,30.62,17,9,17,0.00
2013-12-1,51.3,51.3,51.3,34.2,34.2,34.2,52,52,52,30.62,30.62,10,10,11,0.00
2013-12-2,45.7,38.5,31.5,38.6,32.6,26.4,96,80,63,30.58,30.21,14,7,14,0.00
2013-12-3,50.4,44.3,37.6,50.1,43.9,37.1,99,99,96,30.33,30.15,14,6,14,0.00
2013-12-4,54.1,45.9,32.2,53.1,44.7,27.6,99,96,83,30.28,30.11,24,9,24,0.00
2013-12-5,32.2,22.1,18.1,27.9,11.1,4.4,85,62,52,30.87,30.27,26,15,26,0.00
2013-12-6,18.7,14.9,9.1,4.7,0.7,-3.0,61,53,41,31.16,30.81,17,10,17,0.00
2013-12-7,20.3,11.2,4.6,1.4,-3.2,-7.0,65,52,31,31.38,31.08,14,6,17,0.00
2013-12-8,23.2,19.7,9.7,19.4,12.0,-1.2,86,72,53,31.19,30.52,20,9,20,0.00
2013-12-9,22.8,14.1,1.2,18.7,2.8,-13.4,84,60,46,30.93,30.60,27,11,27,0.00
2013-12-10,25.2,15.0,-0.6,8.0,-1.0,-13.3,62,49,39,30.90,30.66,33,11,33,0.00
2013-12-11,19.8,12.4,1.0,1.8,-4.1,-16.3,51,47,29,31.25,30.82,22,3,22,0.00
2013-12-12,1.9,1.8,1.6,-11.3,-11.7,-11.9,53,52,51,31.26,31.25,6,3,6,0.00
2013-12-13,37.4,27.0,15.8,29.1,17.8,5.0,95,70,48,30.83,30.57,15,6,15,0.00
2013-12-14,31.3,26.4,17.1,30.0,22.6,9.7,96,86,71,30.61,30.50,21,9,21,0.11
2013-12-15,17.8,14.6,10.6,10.0,5.1,1.5,76,66,52,30.70,30.59,20,8,20,0.00
2013-12-16,23.2,17.4,9.5,17.4,10.8,1.8,86,75,61,30.80,30.62,16,6,16,0.00
2013-12-17,36.0,25.9,16.2,25.8,17.3,8.4,86,71,52,30.83,30.67,27,12,27,0.01
2013-12-18,36.5,26.9,12.0,27.0,14.6,1.9,72,60,43,30.85,30.46,31,12,31,0.00
2013-12-19,45.3,38.7,34.0,41.4,33.3,26.5,98,81,66,30.49,30.32,14,8,14,0.01
2013-12-20,43.0,34.6,28.6,42.5,33.9,27.3,99,97,95,30.45,26.58,16,8,16,0.00
2013-12-21,32.5,29.2,27.1,31.0,27.1,23.8,95,91,86,30.45,30.19,14,8,14,0.00
2013-12-22,32.5,27.4,16.7,31.0,24.2,9.9,96,88,74,30.79,30.23,21,6,21,0.00
2013-12-23,17.8,8.7,1.9,11.0,-1.4,-11.5,75,63,52,31.21,30.79,23,13,23,0.00
2013-12-24,19.6,7.7,-3.8,8.9,-4.6,-16.3,69,56,49,31.31,30.90,17,8,17,0.00
2013-12-25,27.3,24.8,19.6,22.9,19.1,8.9,86,79,62,30.91,30.79,22,12,22,0.00
2013-12-26,33.8,26.4,21.4,27.4,21.2,11.8,86,81,66,30.90,30.74,17,9,17,0.00
2013-12-27,43.7,34.3,25.3,33.7,27.8,21.3,88,77,64,31.17,30.75,14,7,14,0.00
2013-12-28,51.6,40.6,32.0,37.0,31.4,26.9,83,70,56,31.22,30.92,17,10,17,0.00
2013-12-29,36.5,22.5,2.8,28.8,15.3,-9.9,89,73,54,31.43,30.89,27,15,27,0.00
2013-12-30,16.2,7.6,-1.5,3.7,-6.1,-15.0,65,52,36,31.54,31.33,18,5,18,0.00
2013-12-31,22.1,15.9,8.8,10.2,5.1,-0.6,70,62,52,31.54,30.77,18,8,18,0.00
2014-1-1,20.5,18.3,16.0,13.6,10.5,6.4,74,71,65,30.88,30.75,17,10,17,0.00
2014-1-2,16.7,9.3,-1.3,5.7,-1.4,-12.4,76,61,52,31.00,30.61,21,9,21,0.00